Terminal Aerodrome Forecast
Issued by NWS

Home | Current Version | Previous Version | Text Only | Print | Product List | Glossary On
Versions: 1 2 3 4 5 6 7 8 9 10 11 12 13 14 15 16 17 18 19 20 21 22 23 24 25 26 27 28 29 30 31 32 33 34 35 36 37 38 39 40 41 42 43 44 45 46 47 48 49 50
000
FTUS41 KOKX 191737
TAFHPN
TAF
KHPN 191737Z 1918/2018 13005KT P6SM VCSH OVC007
     FM192100 12005KT 5SM -SHRA BR OVC007
     FM200200 12004KT 5SM BR OVC005
     FM200500 VRB03KT 2SM BR OVC003
     FM200900 VRB03KT 3/4SM -DZ BR OVC002
     FM201300 VRB03KT 5SM HZ OVC006
     FM201500 14005KT P6SM BKN012
     AMD NOT SKED=

USA.gov is the U.S. government's official web portal to all federal, state and local government web resources and services.